createdAt,value
2023-02-06T00:01:00.719Z,6.82
2023-02-06T00:03:28.975Z,6.90
2023-02-06T00:05:59.430Z,7.28
2023-02-06T00:08:28.230Z,8.32
2023-02-06T00:10:56.559Z,6.60
2023-02-06T00:13:24.695Z,7.63
2023-02-06T00:15:52.752Z,7.60
2023-02-06T00:18:22.176Z,6.35
2023-02-06T00:20:50.227Z,7.75
2023-02-06T00:23:18.329Z,8.13
2023-02-06T00:25:46.753Z,6.32
2023-02-06T00:28:15.097Z,7.28
2023-02-06T00:30:46.579Z,6.13
2023-02-06T00:33:14.875Z,7.03
2023-02-06T00:35:44.250Z,5.45
2023-02-06T00:38:12.691Z,6.15
2023-02-06T00:40:40.823Z,6.25
2023-02-06T00:43:20.374Z,7.03
2023-02-06T00:45:52.465Z,6.03
2023-02-06T00:48:20.619Z,5.53
2023-02-06T00:50:51.155Z,5.80
2023-02-06T00:53:19.783Z,5.10
2023-02-06T00:55:47.883Z,6.03
2023-02-06T00:58:16.137Z,6.20
2023-02-06T01:00:44.851Z,5.90
2023-02-06T01:03:13.125Z,5.70
2023-02-06T01:05:41.297Z,6.07
2023-02-06T01:08:10.872Z,7.38
2023-02-06T01:10:41.785Z,7.05
2023-02-06T01:13:09.982Z,6.38
2023-02-06T01:15:38.088Z,7.18
2023-02-06T01:18:06.435Z,7.07
2023-02-06T01:20:34.603Z,5.88
2023-02-06T01:23:04.807Z,5.50
2023-02-06T01:25:34.651Z,6.07
2023-02-06T01:28:03.101Z,6.88
2023-02-06T01:30:31.508Z,5.78
2023-02-06T01:32:59.729Z,7.03
2023-02-06T01:35:29.623Z,7.10
2023-02-06T01:37:57.662Z,6.45
2023-02-06T01:40:25.841Z,5.55
2023-02-06T01:42:55.254Z,6.30
2023-02-06T01:45:45.598Z,7.93
2023-02-06T01:48:19.913Z,5.60
2023-02-06T01:50:51.754Z,6.43
2023-02-06T01:53:22.318Z,5.57
2023-02-06T01:55:52.432Z,6.03
2023-02-06T01:58:29.098Z,5.90
2023-02-06T02:01:00.369Z,6.20
2023-02-06T02:03:29.830Z,6.38
2023-02-06T02:06:02.421Z,6.13
2023-02-06T02:08:34.799Z,6.88
2023-02-06T02:11:04.472Z,6.05
2023-02-06T02:13:34.376Z,8.60
2023-02-06T02:16:10.607Z,7.40
2023-02-06T02:18:57.500Z,7.18
2023-02-06T02:21:58.077Z,8.60
2023-02-06T02:24:40.311Z,8.65
2023-02-06T02:27:24.451Z,7.38
2023-02-06T02:33:13.990Z,8.27
2023-02-06T02:35:51.961Z,9.15
2023-02-06T02:38:28.612Z,8.38
2023-02-06T02:41:04.258Z,7.38
2023-02-06T02:43:38.276Z,9.20
2023-02-06T02:46:15.545Z,8.40
2023-02-06T02:48:46.796Z,8.43
2023-02-06T02:51:17.407Z,9.15
2023-02-06T02:53:45.550Z,9.80
2023-02-06T02:56:18.661Z,9.02
2023-02-06T02:58:50.313Z,10.73
2023-02-06T03:01:27.900Z,9.30
2023-02-06T03:03:59.600Z,10.25
2023-02-06T03:06:52.757Z,9.52
2023-02-06T03:09:32.751Z,8.90
2023-02-06T03:12:11.417Z,8.80
2023-02-06T03:14:46.692Z,11.10
2023-02-06T03:17:20.493Z,10.23
2023-02-06T03:19:54.227Z,11.55
2023-02-06T03:22:25.615Z,8.68
2023-02-06T03:24:55.041Z,9.13
2023-02-06T03:27:32.092Z,9.73
2023-02-06T03:30:01.925Z,8.63
2023-02-06T03:32:35.521Z,7.43
2023-02-06T03:35:09.001Z,6.85
2023-02-06T03:37:39.105Z,7.78
2023-02-06T03:40:09.540Z,8.88
2023-02-06T03:42:40.665Z,7.97
2023-02-06T03:45:15.420Z,9.95
2023-02-06T03:47:44.893Z,9.30
2023-02-06T03:50:14.823Z,7.93
2023-02-06T03:52:48.259Z,9.23
2023-02-06T03:55:19.394Z,7.70
2023-02-06T03:57:51.378Z,7.68
2023-02-06T04:00:19.512Z,8.30
2023-02-06T04:02:49.081Z,8.48
2023-02-06T04:05:19.163Z,8.25
2023-02-06T04:07:48.524Z,8.93
2023-02-06T04:10:16.859Z,8.13
2023-02-06T04:12:44.952Z,7.28
2023-02-06T04:15:12.988Z,8.40
2023-02-06T04:17:53.902Z,8.43
2023-02-06T04:20:25.865Z,7.57
2023-02-06T04:22:55.303Z,7.10
2023-02-06T04:25:23.308Z,8.63
2023-02-06T04:27:51.456Z,8.07
2023-02-06T04:30:19.722Z,7.20
2023-02-06T04:32:47.940Z,9.05
2023-02-06T04:35:16.010Z,8.20
2023-02-06T04:37:44.014Z,8.73
2023-02-06T04:40:14.093Z,8.82
2023-02-06T04:42:42.110Z,10.23
2023-02-06T04:45:10.903Z,9.38
2023-02-06T04:47:39.295Z,8.20
2023-02-06T04:50:08.138Z,10.13
2023-02-06T04:52:38.545Z,9.60
2023-02-06T04:55:07.199Z,7.85
2023-02-06T04:57:36.606Z,10.10
2023-02-06T05:00:05.343Z,8.77
2023-02-06T05:02:37.512Z,9.90
2023-02-06T05:05:06.810Z,11.57
2023-02-06T05:07:35.050Z,10.35
2023-02-06T05:10:03.531Z,10.95
2023-02-06T05:12:31.657Z,10.35
2023-02-06T05:15:01.056Z,10.52
2023-02-06T05:17:29.084Z,10.27
2023-02-06T05:19:58.369Z,10.30
2023-02-06T05:22:26.958Z,10.25
2023-02-06T05:24:55.074Z,10.70
2023-02-06T05:27:23.243Z,9.75
2023-02-06T05:29:51.304Z,10.15
2023-02-06T05:32:20.786Z,9.65
2023-02-06T05:34:48.816Z,10.40
2023-02-06T05:37:16.922Z,10.30
2023-02-06T05:39:44.994Z,11.20
2023-02-06T05:42:12.955Z,10.50
2023-02-06T05:44:41.053Z,10.27
2023-02-06T05:47:09.072Z,10.13
2023-02-06T05:49:38.696Z,12.25
2023-02-06T05:52:06.708Z,13.05
2023-02-06T05:54:34.855Z,11.00
2023-02-06T05:57:03.415Z,12.43
2023-02-06T05:59:31.875Z,11.60
2023-02-06T06:02:00.129Z,12.23
2023-02-06T06:04:28.367Z,13.75
2023-02-06T06:06:57.808Z,13.00
2023-02-06T06:09:25.987Z,11.73
2023-02-06T06:11:54.331Z,13.98
2023-02-06T06:14:22.458Z,13.77
2023-02-06T06:16:50.602Z,12.18
2023-02-06T06:19:18.838Z,12.38
2023-02-06T06:21:46.905Z,13.13
2023-02-06T06:24:16.368Z,12.82
2023-02-06T06:26:44.610Z,11.73
2023-02-06T06:29:12.846Z,12.60
2023-02-06T06:31:41.109Z,13.30
2023-02-06T06:34:09.216Z,13.27
2023-02-06T06:36:37.298Z,13.05
2023-02-06T06:39:05.453Z,13.60
2023-02-06T06:41:34.840Z,13.18
2023-02-06T06:44:02.933Z,13.45
2023-02-06T06:46:31.030Z,13.13
2023-02-06T06:48:59.185Z,12.35
2023-02-06T06:51:29.311Z,14.55
2023-02-06T06:53:57.377Z,13.93
2023-02-06T06:56:26.885Z,12.23
2023-02-06T06:58:56.453Z,13.75
2023-02-06T07:01:24.745Z,12.02
2023-02-06T07:03:52.859Z,11.15
2023-02-06T07:06:21.000Z,11.27
2023-02-06T07:08:49.173Z,9.80
2023-02-06T07:11:18.504Z,11.93
2023-02-06T07:13:47.052Z,12.88
2023-02-06T07:16:16.580Z,13.05
2023-02-06T07:18:44.673Z,11.13
2023-02-06T07:21:14.165Z,11.70
2023-02-06T07:23:42.271Z,10.30
2023-02-06T07:26:10.359Z,14.10
2023-02-06T07:28:38.525Z,11.07
2023-02-06T07:31:08.510Z,11.20
2023-02-06T07:33:38.041Z,10.23
2023-02-06T07:36:06.482Z,11.40
2023-02-06T07:38:34.493Z,10.95
2023-02-06T07:41:03.353Z,10.90
2023-02-06T07:43:32.063Z,12.27
2023-02-06T07:46:01.902Z,10.57
2023-02-06T07:48:30.653Z,10.68
2023-02-06T07:51:06.183Z,10.38
2023-02-06T07:56:02.833Z,10.07
2023-02-06T07:58:30.860Z,9.75
2023-02-06T08:01:00.652Z,11.77
2023-02-06T08:03:28.727Z,9.80
2023-02-06T08:05:56.851Z,10.13
2023-02-06T08:08:26.850Z,11.20
2023-02-06T08:10:54.958Z,11.35
2023-02-06T08:13:23.031Z,10.25
2023-02-06T08:15:51.202Z,9.50
2023-02-06T08:18:19.261Z,8.45
2023-02-06T08:20:47.346Z,10.05
2023-02-06T08:23:15.427Z,13.85
2023-02-06T08:25:44.816Z,11.02
2023-02-06T08:28:14.996Z,10.77
2023-02-06T08:30:43.208Z,10.20
2023-02-06T08:33:11.278Z,10.85
2023-02-06T08:35:39.336Z,10.18
2023-02-06T08:38:07.379Z,9.38
2023-02-06T08:40:35.416Z,9.98
2023-02-06T08:43:04.794Z,8.48
2023-02-06T08:45:32.940Z,9.02
2023-02-06T08:48:01.013Z,9.57
2023-02-06T08:50:29.048Z,9.45
2023-02-06T08:52:57.156Z,9.18
2023-02-06T08:55:25.491Z,9.45
2023-02-06T08:57:53.567Z,9.13
2023-02-06T09:00:23.575Z,10.20
2023-02-06T09:02:53.355Z,10.75
2023-02-06T09:05:21.669Z,10.85
2023-02-06T09:07:50.665Z,9.48
2023-02-06T09:10:27.182Z,10.98
2023-02-06T09:12:56.066Z,9.82
2023-02-06T09:15:25.487Z,10.52
2023-02-06T09:17:53.691Z,9.85
2023-02-06T09:20:22.560Z,10.60
2023-02-06T09:22:50.674Z,11.63
2023-02-06T09:25:18.790Z,9.88
2023-02-06T09:27:47.238Z,10.20
2023-02-06T09:30:16.031Z,9.00
2023-02-06T09:32:45.670Z,11.80
2023-02-06T09:35:13.722Z,9.45
2023-02-06T09:37:41.886Z,10.38
2023-02-06T09:40:13.365Z,10.07
2023-02-06T09:42:42.527Z,10.88
2023-02-06T09:45:15.334Z,8.85
2023-02-06T09:47:47.684Z,9.32
2023-02-06T09:50:25.214Z,9.55
2023-02-06T09:53:03.991Z,7.88
2023-02-06T09:55:39.788Z,9.00
2023-02-06T09:58:20.291Z,8.65
2023-02-06T10:00:53.022Z,8.38
2023-02-06T10:03:44.980Z,8.35
2023-02-06T10:06:19.352Z,9.20
2023-02-06T10:08:54.882Z,9.43
2023-02-06T10:11:32.383Z,8.10
2023-02-06T10:14:05.010Z,9.60
2023-02-06T10:16:39.584Z,9.70
2023-02-06T10:19:14.545Z,8.40
2023-02-06T10:21:47.300Z,7.82
2023-02-06T10:24:24.878Z,7.38
2023-02-06T10:26:54.580Z,8.35
2023-02-06T10:29:27.375Z,7.63
2023-02-06T10:32:05.328Z,8.55
2023-02-06T10:34:48.380Z,8.73
2023-02-06T10:37:34.561Z,8.18
2023-02-06T10:40:26.429Z,8.90
2023-02-06T10:42:59.133Z,7.35
2023-02-06T10:45:39.908Z,7.65
2023-02-06T10:48:18.879Z,7.35
2023-02-06T10:50:51.903Z,7.70
2023-02-06T10:53:24.365Z,6.55
2023-02-06T10:55:56.505Z,8.57
2023-02-06T10:58:28.715Z,7.00
2023-02-06T11:00:58.768Z,8.30
2023-02-06T11:03:31.900Z,8.20
2023-02-06T11:06:03.844Z,8.30
2023-02-06T11:08:34.600Z,7.25
2023-02-06T11:11:18.745Z,7.55
2023-02-06T11:13:49.778Z,7.32
2023-02-06T11:16:23.876Z,7.63
2023-02-06T11:18:53.399Z,9.60
2023-02-06T11:21:51.603Z,7.72
2023-02-06T11:24:22.617Z,9.52
2023-02-06T11:26:55.671Z,8.20
2023-02-06T11:29:27.348Z,8.05
2023-02-06T11:31:58.595Z,7.05
2023-02-06T11:34:32.237Z,7.68
2023-02-06T11:37:03.917Z,9.43
2023-02-06T11:39:34.253Z,9.13
2023-02-06T11:42:05.535Z,7.30
2023-02-06T11:44:39.017Z,7.43
2023-02-06T11:47:30.310Z,6.07
2023-02-06T11:49:58.830Z,6.53
2023-02-06T11:52:34.414Z,6.18
2023-02-06T11:57:33.627Z,6.32
2023-02-06T12:00:20.229Z,6.15
2023-02-06T12:03:00.380Z,4.63
2023-02-06T12:05:34.007Z,7.13
2023-02-06T12:08:07.926Z,5.57
2023-02-06T12:10:40.569Z,6.43
2023-02-06T12:13:16.688Z,6.40
2023-02-06T12:15:48.206Z,5.97
2023-02-06T12:18:21.649Z,6.40
2023-02-06T12:20:55.668Z,5.70
2023-02-06T12:23:29.588Z,5.53
2023-02-06T12:26:01.681Z,5.40
2023-02-06T12:28:36.962Z,5.97
2023-02-06T12:31:11.160Z,5.97
2023-02-06T12:33:45.645Z,5.13
2023-02-06T12:36:17.519Z,8.18
2023-02-06T12:38:51.702Z,10.60
2023-02-06T12:41:48.414Z,10.15
2023-02-06T12:44:27.986Z,11.55
2023-02-06T12:46:59.676Z,9.98
2023-02-06T12:49:32.375Z,8.35
2023-02-06T12:52:07.030Z,10.95
2023-02-06T12:54:40.651Z,11.13
2023-02-06T12:57:16.904Z,9.02
2023-02-06T13:00:14.014Z,9.35
2023-02-06T13:03:03.583Z,11.55
2023-02-06T13:05:37.088Z,11.80
2023-02-06T13:08:08.877Z,11.73
2023-02-06T13:10:39.183Z,11.65
2023-02-06T13:13:07.642Z,12.40
2023-02-06T13:15:39.452Z,10.10
2023-02-06T13:18:44.574Z,10.15
2023-02-06T13:21:16.289Z,8.32
2023-02-06T13:23:51.238Z,9.80
2023-02-06T13:26:40.681Z,9.45
2023-02-06T13:29:25.228Z,10.20
2023-02-06T13:32:41.941Z,9.30
2023-02-06T13:35:24.982Z,8.00
2023-02-06T13:38:11.661Z,7.85
2023-02-06T13:40:40.081Z,9.00
2023-02-06T13:43:18.564Z,9.68
2023-02-06T13:45:50.566Z,8.50
2023-02-06T13:48:51.048Z,10.13
2023-02-06T13:51:46.455Z,9.18
2023-02-06T13:54:52.387Z,9.63
2023-02-06T13:57:52.443Z,8.32
2023-02-06T14:00:24.875Z,10.10
2023-02-06T14:02:56.311Z,8.15
2023-02-06T14:05:31.145Z,8.85
2023-02-06T14:08:07.172Z,7.57
2023-02-06T14:11:09.131Z,8.00
2023-02-06T14:13:50.657Z,7.18
2023-02-06T14:16:38.233Z,7.40
2023-02-06T14:19:13.569Z,6.18
2023-02-06T14:21:51.132Z,7.95
2023-02-06T14:24:50.990Z,6.47
2023-02-06T14:27:33.060Z,6.78
2023-02-06T14:30:08.278Z,6.40
2023-02-06T14:32:45.531Z,6.40
2023-02-06T14:35:35.748Z,6.38
2023-02-06T14:38:31.515Z,7.57
2023-02-06T14:41:01.890Z,6.95
2023-02-06T14:43:33.267Z,4.55
2023-02-06T14:46:08.104Z,5.60
2023-02-06T14:48:40.472Z,5.40
2023-02-06T14:51:18.936Z,4.60
2023-02-06T14:53:54.001Z,4.60
2023-02-06T14:56:27.692Z,5.20
2023-02-06T14:58:56.848Z,5.32
2023-02-06T15:01:27.759Z,5.88
2023-02-06T15:04:12.341Z,5.50
2023-02-06T15:06:42.755Z,6.43
2023-02-06T15:09:25.034Z,6.55
2023-02-06T15:11:54.791Z,6.90
2023-02-06T15:14:25.505Z,6.88
2023-02-06T15:16:56.761Z,8.02
2023-02-06T15:19:33.724Z,8.55
2023-02-06T15:22:15.438Z,7.47
2023-02-06T15:24:54.411Z,7.30
2023-02-06T15:27:28.741Z,8.27
2023-02-06T15:29:57.465Z,8.38
2023-02-06T15:32:29.669Z,6.82
2023-02-06T15:35:02.070Z,9.57
2023-02-06T15:37:32.829Z,8.07
2023-02-06T15:40:06.434Z,8.73
2023-02-06T15:42:34.737Z,8.32
2023-02-06T15:45:03.050Z,8.13
2023-02-06T15:47:32.033Z,7.72
2023-02-06T15:50:01.516Z,7.82
2023-02-06T15:52:36.179Z,7.80
2023-02-06T15:55:05.565Z,8.00
2023-02-06T15:57:36.409Z,7.90
2023-02-06T16:00:09.961Z,7.75
2023-02-06T16:02:41.700Z,8.23
2023-02-06T16:05:24.824Z,8.75
2023-02-06T16:07:53.243Z,8.95
2023-02-06T16:10:24.551Z,7.82
2023-02-06T16:12:53.520Z,9.40
2023-02-06T16:15:28.948Z,9.93
2023-02-06T16:17:58.314Z,10.45
2023-02-06T16:20:33.960Z,9.70
2023-02-06T16:25:49.434Z,9.50
2023-02-06T16:28:23.119Z,9.82
2023-02-06T16:30:56.847Z,8.65
2023-02-06T16:33:33.387Z,9.90
2023-02-06T16:36:03.521Z,10.98
2023-02-06T16:38:32.088Z,10.95
2023-02-06T16:41:00.583Z,10.25
2023-02-06T16:43:31.642Z,11.13
2023-02-06T16:46:02.255Z,11.38
2023-02-06T16:48:30.518Z,13.07
2023-02-06T16:51:00.127Z,11.77
2023-02-06T16:53:30.117Z,12.40
2023-02-06T16:55:58.314Z,13.63
2023-02-06T16:58:28.439Z,13.25
2023-02-06T17:00:56.628Z,13.55
2023-02-06T17:03:25.388Z,14.07
2023-02-06T17:05:54.639Z,14.60
2023-02-06T17:08:25.524Z,13.93
2023-02-06T17:10:54.933Z,15.20
2023-02-06T17:13:24.778Z,17.10
2023-02-06T17:15:53.374Z,15.18
2023-02-06T17:18:23.108Z,16.00
2023-02-06T17:20:52.907Z,15.10
2023-02-06T17:23:21.622Z,15.18
2023-02-06T17:25:50.842Z,14.77
2023-02-06T17:28:21.452Z,15.32
2023-02-06T17:30:50.801Z,14.30
2023-02-06T17:33:19.141Z,14.45
2023-02-06T17:35:49.222Z,12.75
2023-02-06T17:38:17.307Z,13.43
2023-02-06T17:40:45.611Z,12.18
2023-02-06T17:43:13.764Z,10.93
2023-02-06T17:45:43.493Z,11.20
2023-02-06T17:48:11.678Z,12.23
2023-02-06T17:50:41.427Z,10.52
2023-02-06T17:53:12.542Z,10.88
2023-02-06T17:55:41.081Z,11.93
2023-02-06T17:58:09.274Z,9.27
2023-02-06T18:00:37.845Z,9.10
2023-02-06T18:03:07.589Z,8.75
2023-02-06T18:05:35.999Z,7.47
2023-02-06T18:08:04.194Z,7.88
2023-02-06T18:10:32.234Z,7.72
2023-02-06T18:13:00.252Z,7.97
2023-02-06T18:15:30.373Z,7.90
2023-02-06T18:17:59.971Z,7.00
2023-02-06T18:20:29.417Z,6.70
2023-02-06T18:22:57.673Z,7.13
2023-02-06T18:25:25.819Z,6.30
2023-02-06T18:27:53.924Z,7.05
2023-02-06T18:30:22.217Z,5.88
2023-02-06T18:32:50.369Z,6.68
2023-02-06T18:35:19.848Z,7.28
2023-02-06T18:37:50.041Z,6.88
2023-02-06T18:40:18.279Z,6.85
2023-02-06T18:42:55.136Z,7.30
2023-02-06T18:45:24.826Z,6.88
2023-02-06T18:47:53.190Z,7.22
2023-02-06T18:50:22.226Z,6.95
2023-02-06T18:52:52.098Z,6.93
2023-02-06T18:55:20.750Z,6.72
2023-02-06T18:57:49.162Z,6.32
2023-02-06T19:00:19.032Z,7.30
2023-02-06T19:02:47.101Z,6.68
2023-02-06T19:05:15.597Z,7.03
2023-02-06T19:07:43.682Z,7.47
2023-02-06T19:10:16.240Z,6.97
2023-02-06T19:12:44.464Z,7.13
2023-02-06T19:15:14.383Z,7.18
2023-02-06T19:17:42.706Z,8.05
2023-02-06T19:20:12.403Z,8.55
2023-02-06T19:22:40.555Z,8.45
2023-02-06T19:25:12.597Z,8.60
2023-02-06T19:27:43.710Z,8.85
2023-02-06T19:30:13.561Z,7.72
2023-02-06T19:32:41.738Z,8.85
2023-02-06T19:35:11.909Z,8.25
2023-02-06T19:37:40.153Z,10.23
2023-02-06T19:40:08.859Z,9.50
2023-02-06T19:42:37.060Z,9.27
2023-02-06T19:45:07.309Z,9.40
2023-02-06T19:47:35.955Z,10.20
2023-02-06T19:50:03.998Z,8.50
2023-02-06T19:52:32.499Z,10.73
2023-02-06T19:55:00.544Z,9.32
2023-02-06T19:57:28.586Z,8.95
2023-02-06T19:59:56.864Z,9.68
2023-02-06T20:02:26.314Z,11.07
2023-02-06T20:04:54.458Z,10.13
2023-02-06T20:07:22.607Z,10.55
2023-02-06T20:09:51.147Z,9.82
2023-02-06T20:12:19.172Z,10.85
2023-02-06T20:14:47.290Z,12.13
2023-02-06T20:17:17.311Z,11.77
2023-02-06T20:19:46.770Z,11.90
2023-02-06T20:22:14.844Z,12.15
2023-02-06T20:24:42.965Z,12.25
2023-02-06T20:27:12.666Z,13.43
2023-02-06T20:29:42.726Z,13.75
2023-02-06T20:32:12.051Z,14.75
2023-02-06T20:34:40.222Z,15.05
2023-02-06T20:37:09.744Z,17.25
2023-02-06T20:39:38.142Z,19.55
2023-02-06T20:42:06.317Z,21.73
2023-02-06T20:44:34.450Z,21.45
2023-02-06T20:47:02.723Z,24.45
2023-02-06T20:49:31.518Z,24.27
2023-02-06T20:51:59.768Z,24.50
2023-02-06T20:54:30.820Z,21.52
2023-02-06T20:57:00.329Z,23.73
2023-02-06T20:59:28.391Z,23.38
2023-02-06T21:01:56.605Z,24.42
2023-02-06T21:04:24.902Z,23.27
2023-02-06T21:06:52.909Z,22.77
2023-02-06T21:09:21.010Z,21.63
2023-02-06T21:11:51.091Z,19.33
2023-02-06T21:14:20.246Z,19.95
2023-02-06T21:16:48.570Z,17.60
2023-02-06T21:19:18.980Z,18.27
2023-02-06T21:21:47.132Z,17.70
2023-02-06T21:24:16.246Z,16.75
2023-02-06T21:26:45.099Z,15.70
2023-02-06T21:29:16.018Z,15.40
2023-02-06T21:31:44.695Z,15.80
2023-02-06T21:34:14.840Z,15.90
2023-02-06T21:36:43.289Z,16.42
2023-02-06T21:39:12.122Z,15.27
2023-02-06T21:41:40.247Z,15.45
2023-02-06T21:44:08.294Z,15.13
2023-02-06T21:46:38.005Z,14.48
2023-02-06T21:49:09.177Z,14.95
2023-02-06T21:51:37.212Z,15.98
2023-02-06T21:54:05.526Z,15.75
2023-02-06T21:56:33.590Z,15.00
2023-02-06T21:59:01.650Z,15.70
2023-02-06T22:01:33.150Z,15.80
2023-02-06T22:04:03.749Z,16.83
2023-02-06T22:06:32.079Z,15.02
2023-02-06T22:09:07.555Z,16.95
2023-02-06T22:14:06.633Z,16.67
2023-02-06T22:16:35.106Z,16.75
2023-02-06T22:19:04.907Z,17.15
2023-02-06T22:21:34.157Z,16.75
2023-02-06T22:24:07.381Z,15.50
2023-02-06T22:26:38.585Z,16.40
2023-02-06T22:29:08.366Z,16.08
2023-02-06T22:31:37.453Z,17.27
2023-02-06T22:34:11.758Z,16.35
2023-02-06T22:36:40.195Z,17.38
2023-02-06T22:39:12.449Z,16.08
2023-02-06T22:41:42.136Z,15.30
2023-02-06T22:44:11.577Z,16.42
2023-02-06T22:46:40.789Z,15.95
2023-02-06T22:49:11.399Z,14.90
2023-02-06T22:51:40.955Z,16.70
2023-02-06T22:54:10.347Z,15.90
2023-02-06T22:56:41.039Z,17.40
2023-02-06T22:59:11.063Z,18.35
2023-02-06T23:01:42.129Z,16.13
2023-02-06T23:04:15.257Z,16.75
2023-02-06T23:06:44.466Z,16.70
2023-02-06T23:09:15.902Z,16.83
2023-02-06T23:11:44.722Z,16.52
2023-02-06T23:14:13.872Z,16.08
2023-02-06T23:16:42.590Z,16.83
2023-02-06T23:19:13.390Z,15.48
2023-02-06T23:21:43.233Z,17.50
2023-02-06T23:24:12.285Z,16.70
2023-02-06T23:26:42.823Z,17.05
2023-02-06T23:29:15.689Z,16.67
2023-02-06T23:31:44.191Z,16.55
2023-02-06T23:34:13.762Z,16.70
2023-02-06T23:36:42.043Z,17.08
2023-02-06T23:39:11.714Z,16.15
2023-02-06T23:41:39.793Z,15.15
2023-02-06T23:44:09.572Z,15.23
2023-02-06T23:46:39.789Z,14.98
2023-02-06T23:49:20.916Z,14.98
2023-02-06T23:51:49.047Z,16.80
2023-02-06T23:54:17.291Z,15.35
2023-02-06T23:56:45.439Z,16.33
2023-02-06T23:59:14.301Z,13.95
